createdAt,value
2023-03-08T00:02:10.951Z,5.77
2023-03-08T00:05:19.376Z,6.17
2023-03-08T00:08:27.636Z,6.10
2023-03-08T00:11:37.194Z,6.60
2023-03-08T00:14:45.310Z,5.33
2023-03-08T00:17:53.492Z,6.33
2023-03-08T00:21:03.051Z,5.70
2023-03-08T00:24:12.474Z,5.97
2023-03-08T00:27:21.982Z,5.43
2023-03-08T00:30:30.192Z,5.07
2023-03-08T00:33:38.495Z,5.30
2023-03-08T00:36:47.375Z,5.07
2023-03-08T00:39:58.926Z,5.33
2023-03-08T00:43:09.107Z,5.47
2023-03-08T00:46:17.519Z,5.10
2023-03-08T00:49:27.326Z,5.10
2023-03-08T00:52:35.584Z,4.40
2023-03-08T00:55:50.861Z,4.97
2023-03-08T00:59:00.846Z,4.97
2023-03-08T01:02:09.304Z,5.83
2023-03-08T01:05:17.721Z,4.87
2023-03-08T01:08:27.659Z,4.63
2023-03-08T01:11:36.661Z,5.30
2023-03-08T01:14:46.185Z,4.93
2023-03-08T01:17:55.104Z,5.10
2023-03-08T01:21:05.693Z,4.70
2023-03-08T01:24:14.200Z,5.43
2023-03-08T01:27:22.381Z,5.60
2023-03-08T01:30:32.057Z,5.37
2023-03-08T01:33:43.345Z,5.27
2023-03-08T01:36:51.453Z,5.60
2023-03-08T01:39:59.875Z,6.50
2023-03-08T01:43:24.441Z,5.57
2023-03-08T01:46:36.240Z,6.37
2023-03-08T01:50:01.547Z,5.27
2023-03-08T01:53:10.018Z,5.83
2023-03-08T01:56:20.740Z,5.80
2023-03-08T01:59:33.089Z,6.03
2023-03-08T02:02:49.303Z,6.33
2023-03-08T02:05:58.947Z,6.17
2023-03-08T02:09:08.105Z,5.67
2023-03-08T02:12:17.013Z,5.63
2023-03-08T02:15:26.797Z,5.93
2023-03-08T02:18:52.144Z,6.50
2023-03-08T02:22:00.688Z,5.33
2023-03-08T02:25:16.028Z,6.07
2023-03-08T02:28:27.066Z,6.33
2023-03-08T02:31:35.406Z,6.43
2023-03-08T02:34:46.389Z,5.83
2023-03-08T02:37:54.624Z,5.53
2023-03-08T02:41:04.475Z,5.50
2023-03-08T02:44:12.627Z,5.87
2023-03-08T02:47:21.067Z,5.57
2023-03-08T02:50:29.470Z,5.90
2023-03-08T02:53:37.864Z,6.10
2023-03-08T02:56:47.653Z,5.60
2023-03-08T02:59:56.313Z,6.53
2023-03-08T03:03:05.480Z,6.50
2023-03-08T03:06:18.011Z,6.03
2023-03-08T03:09:29.486Z,5.40
2023-03-08T03:12:39.995Z,5.70
2023-03-08T03:15:52.080Z,6.10
2023-03-08T03:19:00.636Z,5.87
2023-03-08T03:22:08.978Z,6.70
2023-03-08T03:25:17.650Z,6.03
2023-03-08T03:28:28.984Z,5.60
2023-03-08T03:31:37.785Z,6.43
2023-03-08T03:34:46.820Z,6.07
2023-03-08T03:37:57.222Z,5.80
2023-03-08T03:41:07.936Z,6.30
2023-03-08T03:44:18.731Z,5.33
2023-03-08T03:47:30.949Z,5.43
2023-03-08T03:50:42.643Z,5.67
2023-03-08T03:53:54.853Z,6.23
2023-03-08T03:57:03.266Z,5.60
2023-03-08T04:00:22.180Z,5.80
2023-03-08T04:03:40.321Z,6.50
2023-03-08T04:06:49.920Z,10.30
2023-03-08T04:10:01.808Z,7.57
2023-03-08T04:13:13.420Z,8.03
2023-03-08T04:16:29.083Z,10.63
2023-03-08T04:19:39.402Z,10.03
2023-03-08T04:22:49.245Z,30.20
2023-03-08T04:26:05.699Z,20.77
2023-03-08T04:29:15.541Z,11.00
2023-03-08T04:32:25.658Z,8.07
2023-03-08T04:35:38.084Z,7.30
2023-03-08T04:38:48.475Z,7.70
2023-03-08T04:41:57.596Z,8.83
2023-03-08T04:45:11.283Z,7.93
2023-03-08T04:48:23.809Z,8.07
2023-03-08T04:51:34.088Z,12.40
2023-03-08T04:54:45.876Z,23.50
2023-03-08T04:58:01.836Z,25.60
2023-03-08T05:01:15.430Z,17.30
2023-03-08T05:04:25.854Z,13.17
2023-03-08T05:07:34.443Z,9.80
2023-03-08T05:10:49.784Z,8.93
2023-03-08T05:14:00.727Z,8.17
2023-03-08T05:17:10.399Z,9.90
2023-03-08T05:20:20.454Z,8.37
2023-03-08T05:23:30.342Z,9.47
2023-03-08T05:26:42.302Z,9.40
2023-03-08T05:29:53.206Z,10.30
2023-03-08T05:33:01.646Z,11.87
2023-03-08T05:36:14.324Z,10.73
2023-03-08T05:39:24.700Z,11.73
2023-03-08T05:42:44.407Z,24.00
2023-03-08T05:45:59.212Z,23.00
2023-03-08T05:49:09.458Z,11.53
2023-03-08T05:52:19.785Z,10.90
2023-03-08T05:55:28.314Z,14.50
2023-03-08T05:58:38.471Z,19.50
2023-03-08T06:01:47.174Z,14.63
2023-03-08T06:05:13.612Z,16.57
2023-03-08T06:08:24.795Z,34.17
2023-03-08T06:11:33.125Z,26.30
2023-03-08T06:14:42.717Z,28.10
2023-03-08T06:17:54.713Z,21.97
2023-03-08T06:21:09.014Z,8.97
2023-03-08T06:24:20.791Z,8.33
2023-03-08T06:27:29.242Z,8.57
2023-03-08T06:30:40.612Z,8.80
2023-03-08T06:33:49.285Z,8.37
2023-03-08T06:37:02.792Z,9.27
2023-03-08T06:40:14.368Z,8.57
2023-03-08T06:43:23.427Z,8.83
2023-03-08T06:46:32.139Z,7.87
2023-03-08T06:49:40.856Z,8.00
2023-03-08T06:52:49.191Z,7.53
2023-03-08T06:56:03.869Z,7.73
2023-03-08T06:59:15.270Z,7.50
2023-03-08T07:02:23.618Z,8.30
2023-03-08T07:05:32.380Z,7.50
2023-03-08T07:08:40.816Z,6.13
2023-03-08T07:11:50.744Z,7.83
2023-03-08T07:14:58.943Z,7.87
2023-03-08T07:18:07.244Z,7.50
2023-03-08T07:21:26.097Z,8.40
2023-03-08T07:24:34.210Z,7.53
2023-03-08T07:27:44.446Z,8.13
2023-03-08T07:30:54.483Z,8.50
2023-03-08T07:34:02.751Z,8.27
2023-03-08T07:37:13.445Z,12.17
2023-03-08T07:40:21.850Z,9.67
2023-03-08T07:43:31.392Z,7.63
2023-03-08T07:46:41.349Z,7.80
2023-03-08T07:49:49.550Z,7.47
2023-03-08T07:52:57.669Z,7.03
2023-03-08T07:56:06.947Z,7.50
2023-03-08T07:59:16.493Z,8.93
2023-03-08T08:02:24.702Z,8.97
2023-03-08T08:05:32.984Z,7.97
2023-03-08T08:08:41.372Z,8.43
2023-03-08T08:11:49.792Z,7.57
2023-03-08T08:14:59.894Z,7.20
2023-03-08T08:18:11.662Z,7.93
2023-03-08T08:21:21.591Z,7.43
2023-03-08T08:24:30.944Z,7.90
2023-03-08T08:27:39.288Z,7.63
2023-03-08T08:30:58.315Z,7.50
2023-03-08T08:34:06.519Z,7.97
2023-03-08T08:37:14.719Z,8.20
2023-03-08T08:40:22.922Z,9.27
2023-03-08T08:43:32.075Z,7.97
2023-03-08T08:46:41.734Z,9.67
2023-03-08T08:49:50.107Z,9.63
2023-03-08T08:52:59.271Z,10.20
2023-03-08T08:56:26.252Z,8.97
2023-03-08T08:59:36.442Z,9.33
2023-03-08T09:02:46.008Z,9.17
2023-03-08T09:05:54.196Z,8.70
2023-03-08T09:09:02.652Z,8.83
2023-03-08T09:12:11.015Z,9.50
2023-03-08T09:15:19.508Z,8.63
2023-03-08T09:18:29.578Z,9.23
2023-03-08T09:21:38.043Z,8.50
2023-03-08T09:24:46.742Z,8.43
2023-03-08T09:27:55.217Z,8.83
2023-03-08T09:31:12.135Z,9.47
2023-03-08T09:34:21.706Z,8.00
2023-03-08T09:37:30.055Z,9.90
2023-03-08T09:40:50.309Z,9.07
2023-03-08T09:44:17.410Z,8.70
2023-03-08T09:47:40.629Z,8.97
2023-03-08T09:50:53.265Z,8.57
2023-03-08T09:54:08.087Z,8.80
2023-03-08T09:57:23.250Z,9.60
2023-03-08T10:00:34.421Z,8.67
2023-03-08T10:04:16.708Z,9.10
2023-03-08T10:07:39.868Z,9.43
2023-03-08T10:11:00.212Z,8.93
2023-03-08T10:14:19.886Z,9.20
2023-03-08T10:17:43.205Z,9.10
2023-03-08T10:20:51.735Z,8.00
2023-03-08T10:24:16.405Z,9.67
2023-03-08T10:27:28.317Z,9.40
2023-03-08T10:30:41.079Z,8.83
2023-03-08T10:33:58.423Z,9.00
2023-03-08T10:37:08.685Z,9.37
2023-03-08T10:40:22.822Z,9.73
2023-03-08T10:43:37.242Z,8.67
2023-03-08T10:46:51.164Z,8.60
2023-03-08T10:50:15.382Z,8.63
2023-03-08T10:53:24.426Z,9.17
2023-03-08T10:56:44.676Z,8.97
2023-03-08T10:59:53.204Z,11.70
2023-03-08T11:03:17.026Z,10.33
2023-03-08T11:06:26.687Z,9.87
2023-03-08T11:09:36.914Z,11.37
2023-03-08T11:12:47.209Z,6.83
2023-03-08T11:16:16.655Z,9.40
2023-03-08T11:19:41.037Z,19.30
2023-03-08T11:23:07.839Z,11.03
2023-03-08T11:26:24.664Z,10.07
2023-03-08T11:29:51.485Z,13.13
2023-03-08T11:33:49.108Z,13.90
2023-03-08T11:37:06.969Z,9.10
2023-03-08T11:40:29.408Z,8.77
2023-03-08T11:44:09.679Z,9.00
2023-03-08T11:47:55.495Z,7.83
2023-03-08T11:51:15.254Z,6.70
2023-03-08T11:54:42.559Z,8.07
2023-03-08T11:57:57.289Z,7.80
2023-03-08T12:01:13.033Z,6.97
2023-03-08T12:04:33.462Z,7.67
2023-03-08T12:07:48.102Z,6.47
2023-03-08T12:11:01.909Z,6.73
2023-03-08T12:14:19.437Z,6.40
2023-03-08T12:17:36.256Z,7.00
2023-03-08T12:20:47.406Z,6.63
2023-03-08T12:24:15.488Z,7.37
2023-03-08T12:27:33.590Z,8.03
2023-03-08T12:31:00.640Z,7.67
2023-03-08T12:34:26.026Z,7.27
2023-03-08T12:37:35.610Z,8.80
2023-03-08T12:40:47.165Z,7.60
2023-03-08T12:44:05.264Z,18.07
2023-03-08T12:47:24.061Z,8.93
2023-03-08T12:50:38.124Z,8.93
2023-03-08T12:54:00.308Z,8.63
2023-03-08T12:57:23.053Z,13.30
2023-03-08T13:00:34.347Z,11.37
2023-03-08T13:03:43.789Z,17.17
2023-03-08T13:07:16.310Z,18.07
2023-03-08T13:10:33.349Z,8.80
2023-03-08T13:13:52.384Z,6.53
2023-03-08T13:17:00.778Z,5.77
2023-03-08T13:20:20.894Z,5.93
2023-03-08T13:23:38.169Z,4.67
2023-03-08T13:27:20.359Z,3.37
2023-03-08T13:30:34.503Z,3.20
2023-03-08T13:33:46.418Z,3.47
2023-03-08T13:36:54.919Z,1.77
2023-03-08T13:40:07.806Z,1.40
2023-03-08T13:43:18.453Z,0.90
2023-03-08T13:46:26.748Z,0.40
2023-03-08T13:49:41.992Z,0.33
2023-03-08T13:52:50.561Z,0.20
2023-03-08T13:56:01.879Z,0.23
2023-03-08T13:59:20.831Z,0.30
2023-03-08T14:02:31.935Z,0.27
2023-03-08T14:05:45.744Z,0.17
2023-03-08T14:08:54.464Z,1.50
2023-03-08T14:12:06.834Z,0.70
2023-03-08T14:15:20.588Z,0.20
2023-03-08T14:18:34.825Z,0.30
2023-03-08T14:21:51.619Z,0.30
2023-03-08T14:25:05.092Z,0.20
2023-03-08T14:28:38.417Z,0.23
2023-03-08T14:32:02.587Z,0.20
2023-03-08T14:35:25.102Z,0.13
2023-03-08T14:38:35.577Z,0.30
2023-03-08T14:41:43.787Z,0.20
2023-03-08T14:44:54.453Z,0.20
2023-03-08T14:48:22.626Z,0.20
2023-03-08T14:51:40.498Z,0.30
2023-03-08T14:54:48.702Z,0.37
2023-03-08T14:58:02.213Z,0.30
2023-03-08T15:01:10.487Z,0.30
2023-03-08T15:04:22.992Z,0.30
2023-03-08T15:07:37.041Z,0.50
2023-03-08T15:10:46.392Z,0.20
2023-03-08T15:13:54.483Z,0.30
2023-03-08T15:17:02.637Z,0.43
2023-03-08T15:20:15.507Z,0.20
2023-03-08T15:23:27.868Z,0.20
2023-03-08T15:26:36.190Z,0.20
2023-03-08T15:29:44.330Z,0.10
2023-03-08T15:32:52.784Z,0.17
2023-03-08T15:36:02.411Z,0.20
2023-03-08T15:39:13.235Z,0.00
2023-03-08T15:42:21.352Z,0.30
2023-03-08T15:45:29.619Z,0.27
2023-03-08T15:48:37.778Z,0.60
2023-03-08T15:51:47.295Z,0.20
2023-03-08T15:54:55.720Z,0.30
2023-03-08T15:58:04.325Z,0.30
2023-03-08T16:01:12.660Z,0.30
2023-03-08T16:04:21.083Z,0.30
2023-03-08T16:07:30.670Z,0.30
2023-03-08T16:10:41.866Z,0.10
2023-03-08T16:13:52.516Z,0.33
2023-03-08T16:17:00.808Z,0.30
2023-03-08T16:20:10.920Z,0.40
2023-03-08T16:23:20.436Z,0.20
2023-03-08T16:26:28.822Z,0.20
2023-03-08T16:29:37.536Z,0.30
2023-03-08T16:32:45.898Z,0.23
2023-03-08T16:35:54.829Z,0.20
2023-03-08T16:39:05.645Z,0.30
2023-03-08T16:42:14.687Z,0.27
2023-03-08T16:45:22.960Z,0.50
2023-03-08T16:48:31.426Z,0.43
2023-03-08T16:51:39.939Z,0.80
2023-03-08T16:54:49.492Z,2.97
2023-03-08T16:57:57.903Z,3.00
2023-03-08T17:01:12.360Z,1.30
2023-03-08T17:04:22.702Z,0.97
2023-03-08T17:07:30.862Z,7.70
2023-03-08T17:10:41.655Z,5.90
2023-03-08T17:13:51.814Z,1.80
2023-03-08T17:17:00.124Z,0.70
2023-03-08T17:20:10.414Z,0.93
2023-03-08T17:23:19.677Z,0.60
2023-03-08T17:26:29.191Z,1.87
2023-03-08T17:29:37.788Z,0.50
2023-03-08T17:32:46.325Z,0.63
2023-03-08T17:35:55.021Z,1.03
2023-03-08T17:39:04.091Z,0.50
2023-03-08T17:42:13.585Z,1.20
2023-03-08T17:45:21.974Z,0.83
2023-03-08T17:48:30.814Z,1.53
2023-03-08T17:51:39.066Z,1.40
2023-03-08T17:54:49.486Z,1.10
2023-03-08T17:57:59.372Z,1.03
2023-03-08T18:01:13.139Z,1.30
2023-03-08T18:04:22.061Z,0.60
2023-03-08T18:07:30.247Z,0.70
2023-03-08T18:10:38.658Z,0.60
2023-03-08T18:13:48.731Z,0.60
2023-03-08T18:16:56.928Z,0.60
2023-03-08T18:20:07.522Z,0.73
2023-03-08T18:23:15.749Z,1.77
2023-03-08T18:26:24.662Z,0.83
2023-03-08T18:29:37.151Z,1.30
2023-03-08T18:32:46.331Z,1.17
2023-03-08T18:35:58.819Z,1.23
2023-03-08T18:39:09.013Z,1.50
2023-03-08T18:42:17.148Z,0.93
2023-03-08T18:45:26.766Z,0.70
2023-03-08T18:48:34.922Z,0.50
2023-03-08T18:51:44.554Z,0.50
2023-03-08T18:54:52.809Z,0.40
2023-03-08T18:58:00.931Z,0.50
2023-03-08T19:01:15.264Z,0.40
2023-03-08T19:04:23.480Z,0.50
2023-03-08T19:07:32.645Z,0.60
2023-03-08T19:10:42.545Z,0.50
2023-03-08T19:13:58.252Z,0.53
2023-03-08T19:17:09.111Z,0.33
2023-03-08T19:20:22.622Z,0.30
2023-03-08T19:23:30.957Z,0.23
2023-03-08T19:26:42.918Z,0.20
2023-03-08T19:29:53.479Z,0.33
2023-03-08T19:33:07.726Z,0.30
2023-03-08T19:36:17.365Z,0.20
2023-03-08T19:39:30.479Z,0.40
2023-03-08T19:42:41.625Z,0.37
2023-03-08T19:45:52.918Z,0.20
2023-03-08T19:49:04.658Z,0.33
2023-03-08T19:52:16.176Z,0.20
2023-03-08T19:55:24.783Z,0.20
2023-03-08T19:58:33.144Z,0.27
2023-03-08T20:01:41.847Z,0.20
2023-03-08T20:04:51.496Z,0.50
2023-03-08T20:07:59.926Z,0.23
2023-03-08T20:11:08.424Z,0.20
2023-03-08T20:14:16.632Z,0.40
2023-03-08T20:17:25.312Z,0.30
2023-03-08T20:20:34.871Z,0.20
2023-03-08T20:23:43.317Z,0.20
2023-03-08T20:26:52.531Z,0.20
2023-03-08T20:30:01.074Z,0.20
2023-03-08T20:33:11.541Z,0.20
2023-03-08T20:36:25.055Z,0.20
2023-03-08T20:39:34.046Z,0.30
2023-03-08T20:42:42.483Z,0.17
2023-03-08T20:45:50.886Z,0.40
2023-03-08T20:48:59.205Z,0.40
2023-03-08T20:52:09.213Z,0.30
2023-03-08T20:55:17.928Z,0.20
2023-03-08T20:58:27.421Z,0.30
2023-03-08T21:01:35.648Z,0.20
2023-03-08T21:04:44.033Z,0.20
2023-03-08T21:07:54.145Z,0.30
2023-03-08T21:11:02.488Z,0.30
2023-03-08T21:14:12.504Z,0.40
2023-03-08T21:17:22.123Z,0.30
2023-03-08T21:20:30.350Z,0.40
2023-03-08T21:23:40.156Z,0.63
2023-03-08T21:26:48.302Z,0.30
2023-03-08T21:29:56.663Z,0.57
2023-03-08T21:33:04.859Z,0.50
2023-03-08T21:36:13.596Z,0.63
2023-03-08T21:39:26.521Z,1.20
2023-03-08T21:42:34.981Z,0.60
2023-03-08T21:45:43.604Z,1.23
2023-03-08T21:48:51.897Z,0.70
2023-03-08T21:52:00.946Z,0.90
2023-03-08T21:55:11.517Z,0.70
2023-03-08T21:58:19.632Z,0.80
2023-03-08T22:01:30.146Z,0.63
2023-03-08T22:04:41.858Z,0.77
2023-03-08T22:07:53.406Z,0.80
2023-03-08T22:11:08.106Z,1.10
2023-03-08T22:14:19.487Z,1.13
2023-03-08T22:17:30.671Z,1.90
2023-03-08T22:20:40.062Z,0.73
2023-03-08T22:23:56.377Z,0.90
2023-03-08T22:27:11.337Z,1.10
2023-03-08T22:30:23.510Z,0.80
2023-03-08T22:33:33.351Z,0.83
2023-03-08T22:36:44.270Z,1.00
2023-03-08T22:40:00.687Z,0.70
2023-03-08T22:43:16.272Z,0.90
2023-03-08T22:46:27.844Z,1.00
2023-03-08T22:49:36.278Z,1.00
2023-03-08T22:52:44.570Z,0.90
2023-03-08T22:55:52.860Z,0.90
2023-03-08T22:59:04.029Z,0.80
2023-03-08T23:02:12.500Z,0.73
2023-03-08T23:05:22.103Z,1.00
2023-03-08T23:08:30.269Z,0.77
2023-03-08T23:11:39.165Z,0.70
2023-03-08T23:14:48.749Z,1.10
2023-03-08T23:17:56.947Z,0.67
2023-03-08T23:21:06.348Z,0.73
2023-03-08T23:24:15.704Z,1.00
2023-03-08T23:27:24.272Z,0.70
2023-03-08T23:30:34.941Z,0.90
2023-03-08T23:33:44.322Z,0.40
2023-03-08T23:36:53.180Z,0.53
2023-03-08T23:40:01.963Z,0.80
2023-03-08T23:43:10.685Z,0.50
2023-03-08T23:46:21.669Z,0.70
2023-03-08T23:49:29.881Z,0.70
2023-03-08T23:52:38.479Z,0.50
2023-03-08T23:55:46.988Z,0.60
2023-03-08T23:58:57.006Z,0.70
